Time;durP1;ratioP1;P1;durP2;ratioP2;P2;SDS_P1;SDS_P2;PMS_P1;PMS_P2;Temp;Humidity;BMP_temperature;BMP_pressure;BME280_temperature;BME280_humidity;BME280_pressure;Samples;Min_cycle;Max_cycle;Signal;HPM_P1;HPM_P2
2021/12/24 00:01:09;;;;;;;44.72;22.15;;;;;;;-2.75;100.00;95029.44;10490650;28;20497;-74
2021/12/24 00:06:11;;;;;;;47.08;24.83;;;;;;;-2.67;100.00;95020.66;10526230;28;20024;-75
2021/12/24 00:11:14;;;;;;;42.45;24.88;;;;;;;-2.56;100.00;94999.13;10515167;28;20032;-79
2021/12/24 00:16:31;;;;;;;45.00;25.38;;;;;;;-2.47;100.00;95024.34;10530818;28;20036;-74
2021/12/24 00:37:06;;;;;;;39.45;21.10;;;;;;;-2.43;100.00;95016.88;10525538;28;20480;-71
2021/12/24 00:42:07;;;;;;;47.78;22.15;;;;;;;-2.37;100.00;95018.78;10512911;28;20024;-73
2021/12/24 00:47:07;;;;;;;41.88;18.77;;;;;;;-2.36;100.00;95003.78;10527935;28;20012;-72
2021/12/24 00:57:32;;;;;;;43.00;20.75;;;;;;;-2.55;100.00;94973.63;10526485;28;20498;-68
2021/12/24 01:02:36;;;;;;;38.70;18.98;;;;;;;-2.86;100.00;94961.53;10502775;28;20498;-74
2021/12/24 01:07:37;;;;;;;39.47;20.48;;;;;;;-2.97;100.00;94960.22;10529022;28;20028;-77
2021/12/24 01:12:38;;;;;;;39.10;21.17;;;;;;;-3.04;100.00;94960.13;10528400;28;20019;-76
2021/12/24 01:17:45;;;;;;;38.35;19.88;;;;;;;-3.07;100.00;94954.41;10529577;28;20126;-71
2021/12/24 01:28:29;;;;;;;40.03;19.52;;;;;;;-2.80;100.00;94955.56;10529863;28;20028;-77
2021/12/24 01:39:02;;;;;;;36.40;18.75;;;;;;;-2.53;100.00;94946.13;10530663;28;20563;-79
2021/12/24 01:44:10;;;;;;;36.30;16.77;;;;;;;-2.53;100.00;94929.53;10494349;28;20039;-67
2021/12/24 01:49:10;;;;;;;37.25;18.52;;;;;;;-2.66;100.00;94935.47;10500882;28;20024;-75
2021/12/24 01:54:12;;;;;;;37.67;19.20;;;;;;;-2.77;100.00;94937.56;10528731;28;20052;-73
2021/12/24 01:59:13;;;;;;;36.42;17.70;;;;;;;-3.11;100.00;94927.69;10527960;28;20384;-72
2021/12/24 02:04:14;;;;;;;31.42;17.10;;;;;;;-2.98;100.00;94919.13;10527646;28;20048;-75
2021/12/24 02:09:14;;;;;;;36.35;16.63;;;;;;;-3.06;100.00;94900.81;10528068;28;20106;-81
2021/12/24 02:14:20;;;;;;;38.10;17.50;;;;;;;-3.02;100.00;94905.53;10527536;28;20039;-71
2021/12/24 02:29:59;;;;;;;36.08;16.77;;;;;;;-3.08;100.00;94890.50;10528390;28;20464;-74
2021/12/24 02:35:01;;;;;;;38.00;17.80;;;;;;;-3.00;100.00;94874.63;10527242;28;20028;-80
2021/12/24 02:40:06;;;;;;;35.97;17.80;;;;;;;-2.96;100.00;94859.25;10526928;28;20129;-79
2021/12/24 02:45:06;;;;;;;34.58;17.67;;;;;;;-2.98;100.00;94853.41;10526393;28;20044;-72
2021/12/24 02:55:09;;;;;;;36.33;18.67;;;;;;;-3.16;100.00;94843.28;10527587;28;20097;-79
2021/12/24 03:00:15;;;;;;;54.50;21.25;;;;;;;-3.24;100.00;94843.41;10508823;28;20052;-75
2021/12/24 03:05:19;;;;;;;40.78;20.73;;;;;;;-3.17;100.00;94818.78;10526521;28;20024;-76
2021/12/24 03:10:21;;;;;;;42.78;23.17;;;;;;;-3.29;100.00;94821.09;10526304;28;20024;-78
2021/12/24 03:15:24;;;;;;;61.85;28.38;;;;;;;-3.34;100.00;94812.94;10494542;28;20032;-72
2021/12/24 03:20:25;;;;;;;53.60;24.23;;;;;;;-3.51;100.00;94817.59;10534527;28;20024;-77
2021/12/24 03:25:26;;;;;;;51.50;24.63;;;;;;;-3.50;100.00;94821.88;10534778;28;20027;-76
2021/12/24 03:30:29;;;;;;;47.88;22.88;;;;;;;-3.56;100.00;94808.66;10534476;28;20417;-75
2021/12/24 03:35:29;;;;;;;53.13;23.95;;;;;;;-3.62;100.00;94802.31;10516470;28;20607;-75
2021/12/24 03:40:30;;;;;;;54.33;24.85;;;;;;;-3.64;100.00;94813.00;10516502;28;20032;-77
2021/12/24 03:45:40;;;;;;;45.90;21.50;;;;;;;-3.76;100.00;94806.59;10533254;28;20043;-73
2021/12/24 03:50:51;;;;;;;40.65;22.90;;;;;;;-3.77;100.00;94807.56;10533388;28;20455;-75
2021/12/24 03:55:52;;;;;;;46.60;25.35;;;;;;;-3.68;100.00;94796.00;10517300;28;20044;-78
2021/12/24 04:00:52;;;;;;;49.03;24.88;;;;;;;-3.64;100.00;94792.00;10533204;28;20019;-79
2021/12/24 04:05:53;;;;;;;47.28;23.13;;;;;;;-3.58;100.00;94797.53;10532550;28;20024;-78
2021/12/24 04:10:53;;;;;;;49.33;23.70;;;;;;;-3.56;100.00;94787.63;10533558;28;20027;-80
2021/12/24 04:15:54;;;;;;;49.38;24.73;;;;;;;-3.56;100.00;94796.31;10531544;28;20459;-76
2021/12/24 04:26:16;;;;;;;56.60;27.23;;;;;;;-3.58;100.00;94806.22;10519506;28;20032;-73
2021/12/24 04:31:21;;;;;;;48.30;25.77;;;;;;;-3.53;100.00;94803.84;10532024;28;20500;-78
2021/12/24 04:36:42;;;;;;;58.65;30.75;;;;;;;-3.54;100.00;94786.47;10514373;28;20089;-75
2021/12/24 05:12:50;;;;;;;45.08;24.83;;;;;;;-3.87;100.00;94801.81;10504799;28;20064;-80
2021/12/24 05:22:58;;;;;;;51.15;25.00;;;;;;;-3.66;100.00;94793.97;10531132;28;20035;-79
2021/12/24 05:27:59;;;;;;;51.95;27.00;;;;;;;-3.45;100.00;94808.19;10527015;28;20023;-74
2021/12/24 05:33:00;;;;;;;47.85;27.83;;;;;;;-3.52;100.00;94807.28;10528383;28;20058;-80
2021/12/24 05:38:00;;;;;;;58.28;27.83;;;;;;;-3.67;100.00;94816.00;10510630;28;20486;-76
2021/12/24 05:43:01;;;;;;;56.60;26.67;;;;;;;-3.59;100.00;94788.81;10528301;28;20028;-70
2021/12/24 05:48:02;;;;;;;53.67;26.23;;;;;;;-3.43;100.00;94803.56;10486148;28;20124;-78
2021/12/24 05:53:02;;;;;;;54.10;23.30;;;;;;;-3.36;100.00;94793.09;10502647;28;20024;-70
2021/12/24 05:58:07;;;;;;;38.83;23.88;;;;;;;-3.25;100.00;94758.47;10486519;28;20461;-75
2021/12/24 06:03:08;;;;;;;47.28;23.58;;;;;;;-3.19;100.00;94762.19;10485891;28;20024;-77
2021/12/24 06:08:09;;;;;;;49.40;22.05;;;;;;;-3.14;100.00;94760.63;10485419;28;20020;-73
2021/12/24 06:13:10;;;;;;;41.45;21.33;;;;;;;-2.93;100.00;94758.97;10510061;28;20035;-78
2021/12/24 06:18:20;;;;;;;35.00;19.27;;;;;;;-2.72;100.00;94768.69;10527235;28;20105;-70
2021/12/24 06:23:22;;;;;;;34.97;18.33;;;;;;;-2.52;100.00;94770.66;10531428;28;20508;-76
2021/12/24 06:28:23;;;;;;;40.95;18.67;;;;;;;-2.31;100.00;94788.22;10531300;28;20031;-72
2021/12/24 06:33:24;;;;;;;44.60;18.65;;;;;;;-2.19;100.00;94799.03;10531225;28;20039;-76
2021/12/24 06:38:25;;;;;;;38.70;20.60;;;;;;;-1.98;100.00;94800.78;10526862;28;20020;-74
2021/12/24 06:43:28;;;;;;;35.80;22.35;;;;;;;-1.87;100.00;94818.69;10529777;28;20058;-75
2021/12/24 06:48:28;;;;;;;40.10;18.48;;;;;;;-1.66;100.00;94822.22;10528354;28;20474;-75
2021/12/24 06:53:29;;;;;;;33.00;17.25;;;;;;;-1.47;100.00;94831.25;10527007;28;20048;-78
2021/12/24 06:58:30;;;;;;;33.15;16.67;;;;;;;-1.24;100.00;94802.75;10525002;28;20379;-79
2021/12/24 07:03:30;;;;;;;29.50;14.95;;;;;;;-0.96;100.00;94772.81;10523955;28;20035;-74
2021/12/24 07:08:32;;;;;;;31.00;15.40;;;;;;;-0.80;100.00;94779.53;10522478;28;20020;-73
2021/12/24 07:13:32;;;;;;;21.20;12.93;;;;;;;-0.64;100.00;94785.41;10502250;28;20536;-79
2021/12/24 07:18:33;;;;;;;32.15;14.75;;;;;;;-0.63;100.00;94782.56;10499575;28;20032;-77
2021/12/24 07:23:34;;;;;;;28.42;13.63;;;;;;;-0.88;100.00;94769.97;10512955;28;20035;-77
2021/12/24 07:28:34;;;;;;;27.33;13.20;;;;;;;-0.72;100.00;94768.78;10526309;28;20519;-76
2021/12/24 07:33:35;;;;;;;24.83;13.70;;;;;;;-0.58;100.00;94772.22;10507566;28;20027;-77
2021/12/24 07:38:35;;;;;;;29.70;14.45;;;;;;;-0.62;100.00;94778.94;10529800;28;20066;-82
2021/12/24 07:43:37;;;;;;;32.28;16.70;;;;;;;-0.58;100.00;94788.06;10494048;28;20044;-73
2021/12/24 07:48:44;;;;;;;42.38;19.75;;;;;;;-0.42;100.00;94771.03;10520088;28;20035;-77
2021/12/24 07:53:45;;;;;;;37.28;18.52;;;;;;;-0.52;100.00;94774.06;10538017;28;20056;-68
2021/12/24 07:58:48;;;;;;;37.92;20.50;;;;;;;-0.29;100.00;94788.69;10587077;27;20031;-74
2021/12/24 08:03:48;;;;;;;48.65;20.70;;;;;;;-0.04;100.00;94785.44;10588231;27;20446;-68
2021/12/24 08:08:49;;;;;;;42.33;19.02;;;;;;;0.41;100.00;94790.81;10585121;27;20027;-72
2021/12/24 08:13:49;;;;;;;40.60;19.50;;;;;;;0.68;94.52;94778.31;10598474;27;20037;-80
2021/12/24 08:18:50;;;;;;;34.42;18.05;;;;;;;0.90;93.96;94769.25;10617558;27;20030;-72
2021/12/24 08:23:50;;;;;;;39.70;16.65;;;;;;;0.88;95.47;94790.63;10597526;27;20023;-71
2021/12/24 08:28:51;;;;;;;39.83;18.73;;;;;;;1.10;97.20;94751.41;10617227;27;20033;-76
2021/12/24 08:33:52;;;;;;;32.15;16.48;;;;;;;2.02;90.57;94739.47;10608202;27;20066;-75
2021/12/24 08:38:52;;;;;;;33.72;16.55;;;;;;;3.45;74.94;94723.16;10597526;27;20085;-76
2021/12/24 08:43:53;;;;;;;36.25;18.40;;;;;;;3.19;71.65;94730.47;10580891;27;20473;-75
2021/12/24 08:48:53;;;;;;;40.10;19.52;;;;;;;2.66;74.61;94721.38;10572121;28;20027;-74
2021/12/24 08:53:54;;;;;;;30.35;15.40;;;;;;;2.63;73.89;94721.03;10585816;27;20079;-80
2021/12/24 08:58:56;;;;;;;32.20;14.68;;;;;;;3.01;77.49;94714.59;10586228;27;20125;-77
2021/12/24 09:03:57;;;;;;;37.75;13.38;;;;;;;3.87;71.47;94723.06;10587908;27;20027;-76
2021/12/24 09:08:58;;;;;;;23.15;11.13;;;;;;;4.44;67.73;94718.97;10595662;27;20353;-77
2021/12/24 09:13:58;;;;;;;23.10;12.00;;;;;;;5.11;64.58;94710.41;10552793;27;20036;-73
2021/12/24 09:19:06;;;;;;;24.67;11.95;;;;;;;5.59;62.99;94697.59;10594236;27;20495;-79
2021/12/24 09:24:08;;;;;;;21.67;11.95;;;;;;;6.14;59.30;94681.91;10613537;27;20027;-78
2021/12/24 09:29:11;;;;;;;27.63;12.13;;;;;;;6.26;56.66;94685.25;10588115;27;20048;-81
2021/12/24 09:34:13;;;;;;;29.00;12.55;;;;;;;6.19;55.73;94684.63;10550651;28;20031;-71
2021/12/24 09:39:14;;;;;;;27.77;11.48;;;;;;;6.32;56.24;94675.44;10551268;28;20690;-74
2021/12/24 09:44:15;;;;;;;23.88;12.45;;;;;;;6.56;53.95;94648.50;10551299;28;20029;-71
2021/12/24 09:49:16;;;;;;;25.92;11.77;;;;;;;6.61;53.13;94652.03;10571598;27;20027;-72
2021/12/24 09:54:22;;;;;;;22.60;11.05;;;;;;;7.78;52.71;94637.28;10613818;27;20138;-77
2021/12/24 09:59:24;;;;;;;25.58;11.00;;;;;;;10.52;45.46;94635.81;10611455;27;20095;-73
2021/12/24 10:04:29;;;;;;;19.67;10.52;;;;;;;12.24;40.02;94625.19;10593537;27;20031;-77
2021/12/24 10:09:42;;;;;;;21.50;9.38;;;;;;;14.24;37.13;94606.38;10574623;27;20110;-77
2021/12/24 10:14:59;;;;;;;25.05;10.57;;;;;;;15.36;34.08;94580.75;10586104;27;20628;-76
2021/12/24 10:20:10;;;;;;;20.38;10.50;;;;;;;16.43;32.03;94568.31;10571899;27;20023;-77
2021/12/24 10:25:13;;;;;;;23.20;9.98;;;;;;;17.17;30.68;94576.78;10550050;28;20465;-73
2021/12/24 10:30:19;;;;;;;17.02;9.02;;;;;;;17.83;30.23;94560.25;10549884;28;20027;-81
2021/12/24 10:35:25;;;;;;;16.42;8.98;;;;;;;18.33;29.40;94550.66;10566444;28;20489;-79
2021/12/24 10:40:30;;;;;;;18.48;9.10;;;;;;;18.87;28.36;94528.31;10578297;27;20037;-76
2021/12/24 10:45:33;;;;;;;22.25;10.00;;;;;;;19.12;28.13;94531.19;10592093;27;20023;-77
2021/12/24 10:50:38;;;;;;;16.83;8.27;;;;;;;18.16;28.76;94518.91;10591384;27;20027;-75
2021/12/24 10:55:51;;;;;;;16.83;8.63;;;;;;;18.67;28.50;94497.19;10586151;27;20509;-76
2021/12/24 11:00:52;;;;;;;16.52;8.02;;;;;;;14.79;32.61;94508.19;10568518;27;20035;-74
2021/12/24 11:05:54;;;;;;;20.95;9.15;;;;;;;13.29;35.61;94510.22;10609009;28;20463;-70
2021/12/24 11:10:58;;;;;;;21.95;8.20;;;;;;;13.68;35.39;94490.94;10574316;28;20031;-75
2021/12/24 11:16:02;;;;;;;17.17;8.43;;;;;;;14.28;34.67;94477.63;10561895;27;20030;-76
2021/12/24 11:21:10;;;;;;;18.02;8.90;;;;;;;16.39;32.35;94466.97;10608549;28;20419;-75
2021/12/24 11:26:20;;;;;;;16.75;7.93;;;;;;;18.71;29.95;94453.75;10587488;28;20339;-73
2021/12/24 11:31:25;;;;;;;13.25;7.55;;;;;;;20.56;27.74;94432.38;10594678;27;20042;-76
2021/12/24 11:36:30;;;;;;;12.45;6.53;;;;;;;20.63;26.90;94431.78;10591183;27;20241;-77
2021/12/24 11:41:34;;;;;;;10.68;6.07;;;;;;;21.98;25.63;94426.88;10601528;27;20034;-76
2021/12/24 11:46:37;;;;;;;10.70;6.43;;;;;;;20.72;26.70;94437.94;10607215;27;20567;-77
2021/12/24 11:51:42;;;;;;;10.23;6.25;;;;;;;18.94;28.40;94443.38;10578625;27;20023;-77
2021/12/24 11:56:46;;;;;;;15.75;7.47;;;;;;;14.94;33.88;94461.03;10581099;27;20039;-72
2021/12/24 12:01:46;;;;;;;22.20;8.30;;;;;;;13.53;35.84;94466.91;10578226;27;20114;-76
2021/12/24 12:06:47;;;;;;;16.02;9.13;;;;;;;11.35;40.46;94470.16;10612966;27;20484;-70
2021/12/24 12:11:58;;;;;;;19.38;8.73;;;;;;;10.11;44.38;94469.47;10554734;27;20035;-75
2021/12/24 12:17:01;;;;;;;25.75;9.25;;;;;;;9.27;46.75;94468.13;10537830;27;20084;-77
2021/12/24 12:22:11;;;;;;;21.10;9.65;;;;;;;8.96;50.22;94476.22;10596366;27;20496;-74
2021/12/24 12:27:26;;;;;;;13.95;7.72;;;;;;;8.74;51.82;94444.31;10597522;27;20028;-73
2021/12/24 12:32:38;;;;;;;12.63;5.72;;;;;;;8.78;54.69;94434.69;10560866;27;20497;-75
2021/12/24 12:37:53;;;;;;;8.10;4.78;;;;;;;8.56;57.26;94434.94;10573522;27;20087;-72
2021/12/24 12:42:56;;;;;;;10.68;5.97;;;;;;;8.72;55.74;94428.53;10594975;27;20549;-76
2021/12/24 12:48:05;;;;;;;16.90;5.90;;;;;;;8.68;58.63;94423.97;10586668;27;20034;-73
2021/12/24 12:53:35;;;;;;;11.77;6.03;;;;;;;8.69;56.80;94418.34;10562381;27;20047;-76
2021/12/24 12:58:36;;;;;;;12.13;7.15;;;;;;;8.33;56.42;94423.66;10598384;27;20095;-70
2021/12/24 13:04:10;;;;;;;16.67;7.97;;;;;;;8.08;58.50;94426.28;10561499;27;20030;-76
2021/12/24 13:09:21;;;;;;;14.18;7.15;;;;;;;7.93;59.73;94414.50;10537471;27;20042;-77
2021/12/24 13:14:25;;;;;;;14.45;6.38;;;;;;;7.86;61.67;94419.28;10569378;28;20019;-70
2021/12/24 13:24:29;;;;;;;23.55;8.40;;;;;;;7.31;64.96;94408.94;10536056;28;20429;-72
2021/12/24 13:29:29;;;;;;;13.30;7.75;;;;;;;7.14;67.50;94392.28;10536200;28;20031;-70
2021/12/24 13:34:30;;;;;;;16.65;8.45;;;;;;;7.00;69.34;94402.63;10535895;28;20027;-75
2021/12/24 13:39:30;;;;;;;16.23;8.30;;;;;;;7.11;69.59;94398.13;10535690;28;20406;-71
2021/12/24 13:44:34;;;;;;;19.52;8.35;;;;;;;7.03;70.79;94387.94;10553487;27;20035;-73
2021/12/24 13:50:00;;;;;;;14.98;7.05;;;;;;;7.03;71.33;94390.63;10593523;27;20029;-73
2021/12/24 13:55:19;;;;;;;11.43;6.22;;;;;;;7.07;71.21;94392.50;10591548;27;20047;-76
2021/12/24 14:00:20;;;;;;;11.13;5.85;;;;;;;7.16;69.97;94407.00;10591585;27;20450;-75
2021/12/24 14:05:22;;;;;;;13.73;6.10;;;;;;;7.25;70.14;94409.16;10592806;27;20031;-76
2021/12/24 14:10:25;;;;;;;20.38;5.25;;;;;;;7.15;69.95;94404.56;10586932;27;20084;-75
2021/12/24 14:15:28;;;;;;;12.90;6.57;;;;;;;7.11;71.07;94406.16;10572326;27;20027;-74
2021/12/24 14:20:59;;;;;;;10.45;5.75;;;;;;;7.03;71.42;94412.78;10594452;27;20039;-69
2021/12/24 14:26:04;;;;;;;14.88;6.55;;;;;;;6.99;72.05;94395.66;10582961;27;20032;-73
2021/12/24 14:31:05;;;;;;;15.15;6.47;;;;;;;6.98;72.86;94404.75;10573633;27;20039;-70
2021/12/24 14:36:17;;;;;;;14.50;6.70;;;;;;;6.88;74.13;94408.16;10593877;27;20113;-77
2021/12/24 14:41:36;;;;;;;16.13;6.57;;;;;;;6.79;74.25;94399.81;10565122;22;20055;-72
2021/12/24 14:46:36;;;;;;;11.60;6.05;;;;;;;6.78;74.58;94411.59;10482575;28;20037;-72
2021/12/24 14:51:37;;;;;;;15.30;7.75;;;;;;;6.60;77.41;94419.97;10483018;28;20673;-79
2021/12/24 14:56:37;;;;;;;19.08;8.20;;;;;;;6.57;78.55;94425.84;10457623;28;20029;-75
2021/12/24 15:01:42;;;;;;;18.67;8.10;;;;;;;6.46;79.88;94432.94;10457481;28;20025;-70
2021/12/24 15:06:50;;;;;;;16.50;8.50;;;;;;;6.27;82.28;94424.53;10467991;28;20578;-72
2021/12/24 15:11:54;;;;;;;20.47;9.87;;;;;;;6.13;83.65;94424.94;10505714;28;20039;-74
2021/12/24 15:16:55;;;;;;;23.75;10.45;;;;;;;6.09;85.28;94429.16;10507276;28;20028;-76
2021/12/24 15:21:56;;;;;;;14.35;9.02;;;;;;;5.84;88.30;94440.34;10534032;28;20533;-76
2021/12/24 15:26:58;;;;;;;19.63;9.43;;;;;;;5.88;88.83;94414.78;10502163;28;20086;-71
2021/12/24 15:31:59;;;;;;;21.30;9.18;;;;;;;5.73;88.72;94426.09;10478873;28;20050;-74
2021/12/24 15:37:00;;;;;;;24.65;9.57;;;;;;;5.73;90.50;94425.31;10492906;28;20025;-71
2021/12/24 15:42:00;;;;;;;23.33;10.93;;;;;;;5.64;92.20;94441.72;10505058;28;20155;-71
2021/12/24 15:47:01;;;;;;;15.65;7.03;;;;;;;5.63;91.03;94432.13;10490346;28;20108;-75
2021/12/24 15:52:01;;;;;;;11.02;5.80;;;;;;;5.78;89.55;94428.81;10487846;28;20036;-74
2021/12/24 15:57:04;;;;;;;16.17;7.88;;;;;;;5.73;89.39;94428.75;10490191;28;20482;-74
2021/12/24 16:02:05;;;;;;;16.08;7.00;;;;;;;5.80;89.11;94428.56;10488605;28;20029;-71
2021/12/24 16:07:07;;;;;;;19.10;7.65;;;;;;;5.72;89.27;94432.50;10493908;28;20494;-74
2021/12/24 16:12:11;;;;;;;15.88;6.35;;;;;;;5.72;88.69;94431.69;10514502;28;20040;-79
2021/12/24 16:17:11;;;;;;;13.77;7.60;;;;;;;5.69;89.17;94446.31;10477231;28;20032;-72
2021/12/24 16:22:12;;;;;;;14.13;7.53;;;;;;;5.61;90.21;94446.75;10511681;28;20040;-76
2021/12/24 16:27:13;;;;;;;20.80;7.95;;;;;;;5.51;91.40;94431.44;10487290;28;20442;-71
2021/12/24 16:32:14;;;;;;;17.55;8.45;;;;;;;5.41;92.40;94447.31;10487644;28;20032;-74
2021/12/24 16:37:15;;;;;;;24.08;11.43;;;;;;;5.32;93.24;94444.28;10463352;28;20120;-79
2021/12/24 16:42:17;;;;;;;17.33;8.60;;;;;;;5.29;93.60;94437.59;10463294;28;20060;-71
2021/12/24 16:47:17;;;;;;;23.13;10.68;;;;;;;5.23;95.32;94459.06;10467357;28;20024;-71
2021/12/24 16:52:19;;;;;;;26.05;11.20;;;;;;;5.17;95.81;94463.53;10474069;28;20024;-75
2021/12/24 16:57:19;;;;;;;27.38;11.13;;;;;;;5.07;97.85;94458.88;10465021;28;20516;-74
2021/12/24 17:02:20;;;;;;;21.65;9.35;;;;;;;4.91;99.14;94460.53;10476045;28;20093;-72
2021/12/24 17:07:20;;;;;;;21.40;10.18;;;;;;;4.76;100.00;94463.75;10514012;28;20043;-78
2021/12/24 17:12:21;;;;;;;19.85;11.65;;;;;;;4.78;100.00;94479.47;10498494;28;20032;-70
2021/12/24 17:17:27;;;;;;;19.17;10.68;;;;;;;4.73;100.00;94490.03;10504387;28;20050;-71
2021/12/24 17:22:28;;;;;;;25.80;11.48;;;;;;;4.59;100.00;94479.75;10496507;28;20390;-74
2021/12/24 17:27:30;;;;;;;24.88;10.13;;;;;;;4.56;100.00;94479.41;10477665;28;20039;-72
2021/12/24 17:32:30;;;;;;;22.30;11.40;;;;;;;4.57;100.00;94494.34;10493470;28;20069;-79
2021/12/24 17:37:33;;;;;;;20.50;10.25;;;;;;;4.53;100.00;94488.66;10467402;28;20413;-72
2021/12/24 17:42:35;;;;;;;30.48;11.35;;;;;;;4.46;100.00;94493.34;10489188;28;20498;-75
2021/12/24 17:47:36;;;;;;;26.60;11.02;;;;;;;4.37;100.00;94500.91;10477742;28;20029;-76
2021/12/24 17:52:38;;;;;;;36.30;13.52;;;;;;;4.24;100.00;94496.72;10499389;28;20034;-67
2021/12/24 17:57:40;;;;;;;33.65;15.85;;;;;;;4.06;100.00;94495.06;10463820;28;20032;-70
2021/12/24 18:02:41;;;;;;;30.55;13.50;;;;;;;4.07;100.00;94506.50;10486432;28;20036;-74
2021/12/24 18:07:43;;;;;;;36.80;15.90;;;;;;;4.05;100.00;94505.94;10481647;28;20123;-73
2021/12/24 18:12:45;;;;;;;37.95;13.88;;;;;;;4.00;100.00;94498.66;10493058;28;20030;-72
2021/12/24 18:17:46;;;;;;;32.05;15.27;;;;;;;3.81;100.00;94500.72;10484658;28;20496;-77
2021/12/24 18:22:47;;;;;;;31.02;14.40;;;;;;;3.87;100.00;94501.63;10498351;28;20030;-73
2021/12/24 18:27:48;;;;;;;28.98;14.60;;;;;;;3.78;100.00;94489.72;10497213;28;20028;-75
2021/12/24 18:32:50;;;;;;;38.67;14.27;;;;;;;3.56;100.00;94493.03;10494760;28;20101;-74
2021/12/24 18:38:07;;;;;;;30.02;15.07;;;;;;;3.46;100.00;94503.44;10498794;28;20031;-69
2021/12/24 18:43:11;;;;;;;32.97;16.23;;;;;;;3.37;100.00;94501.16;10497340;28;20056;-74
2021/12/24 18:48:14;;;;;;;27.35;14.88;;;;;;;3.29;100.00;94498.84;10515300;28;20032;-74
2021/12/24 18:53:14;;;;;;;35.30;16.27;;;;;;;3.22;100.00;94519.41;10494643;28;20474;-78
2021/12/24 18:58:16;;;;;;;28.95;15.93;;;;;;;3.23;100.00;94484.66;10444856;28;20469;-77
2021/12/24 19:03:18;;;;;;;31.85;16.10;;;;;;;3.25;100.00;94503.00;10475595;28;20040;-72
2021/12/24 19:08:19;;;;;;;32.22;14.80;;;;;;;3.19;100.00;94515.38;10481097;28;20028;-75
2021/12/24 19:13:20;;;;;;;32.83;13.23;;;;;;;3.23;100.00;94519.16;10492404;28;20106;-74
2021/12/24 19:18:21;;;;;;;24.40;13.43;;;;;;;3.28;100.00;94531.78;10490198;28;20119;-70
2021/12/24 19:23:23;;;;;;;25.88;14.18;;;;;;;3.37;100.00;94537.53;10523706;28;20035;-75
2021/12/24 19:28:25;;;;;;;24.95;14.52;;;;;;;3.36;100.00;94518.16;10523625;28;20028;-70
2021/12/24 19:33:27;;;;;;;21.75;11.98;;;;;;;3.43;100.00;94515.34;10500425;28;20033;-72
2021/12/24 19:38:27;;;;;;;26.00;13.25;;;;;;;3.50;100.00;94518.69;10480032;28;20462;-73
2021/12/24 19:43:28;;;;;;;28.83;13.82;;;;;;;3.53;100.00;94509.44;10482158;28;20052;-76
2021/12/24 19:48:28;;;;;;;23.50;12.38;;;;;;;3.38;100.00;94512.59;10486456;28;20029;-74
2021/12/24 19:53:29;;;;;;;32.53;15.95;;;;;;;3.42;100.00;94513.75;10478563;28;20113;-74
2021/12/24 19:58:30;;;;;;;32.58;15.50;;;;;;;3.39;100.00;94524.81;10485682;28;20634;-74
2021/12/24 20:03:30;;;;;;;36.95;16.58;;;;;;;3.12;100.00;94490.78;10514098;28;20036;-70
2021/12/24 20:08:33;;;;;;;28.58;14.38;;;;;;;3.15;100.00;94492.97;10482593;28;20025;-72
2021/12/24 20:13:34;;;;;;;38.20;15.40;;;;;;;3.04;100.00;94491.13;10488956;28;20032;-76
2021/12/24 20:18:36;;;;;;;44.08;17.15;;;;;;;3.05;100.00;94492.75;10473338;28;20460;-76
2021/12/24 20:23:37;;;;;;;32.75;15.13;;;;;;;2.90;100.00;94512.63;10487895;28;20028;-73
2021/12/24 20:28:39;;;;;;;33.17;15.90;;;;;;;2.89;100.00;94524.28;10480753;28;20398;-70
2021/12/24 20:33:39;;;;;;;29.95;14.30;;;;;;;2.84;100.00;94484.34;10487208;28;20039;-71
2021/12/24 20:38:40;;;;;;;24.20;13.85;;;;;;;2.83;100.00;94533.16;10493581;28;20025;-70
2021/12/24 20:43:41;;;;;;;23.58;13.40;;;;;;;2.73;100.00;94520.47;10486284;28;20075;-75
2021/12/24 20:48:42;;;;;;;27.30;11.63;;;;;;;2.80;100.00;94533.59;10458574;28;20111;-72
2021/12/24 20:53:43;;;;;;;28.55;13.48;;;;;;;2.71;100.00;94517.22;10493075;28;20037;-74
2021/12/24 20:58:44;;;;;;;27.95;13.93;;;;;;;2.55;100.00;94520.53;10503564;28;20406;-71
2021/12/24 21:03:45;;;;;;;31.77;15.27;;;;;;;2.37;100.00;94530.19;10501287;28;20077;-72
2021/12/24 21:08:46;;;;;;;26.15;14.50;;;;;;;2.44;100.00;94529.28;10502578;28;20059;-71
2021/12/24 21:13:48;;;;;;;25.90;13.32;;;;;;;2.37;100.00;94514.28;10463803;28;20124;-78
2021/12/24 21:18:48;;;;;;;30.63;14.07;;;;;;;2.40;100.00;94497.13;10445418;28;20119;-71
2021/12/24 21:23:57;;;;;;;33.63;14.02;;;;;;;2.48;100.00;94488.00;10505347;23;20386;-71
2021/12/24 21:28:59;;;;;;;30.70;14.50;;;;;;;2.56;100.00;94512.34;10467658;28;20044;-72
2021/12/24 21:34:00;;;;;;;25.08;12.57;;;;;;;2.66;100.00;94498.50;10469036;28;20028;-72
2021/12/24 21:39:03;;;;;;;24.70;11.82;;;;;;;2.73;100.00;94512.50;10477523;28;20066;-72
2021/12/24 21:44:04;;;;;;;28.10;11.95;;;;;;;2.74;100.00;94500.03;10485575;28;20043;-71
2021/12/24 21:49:06;;;;;;;26.98;12.07;;;;;;;2.77;100.00;94499.56;10556208;28;20509;-76
2021/12/24 21:54:06;;;;;;;20.55;12.98;;;;;;;2.74;100.00;94514.09;10501705;28;20070;-72
2021/12/24 21:59:08;;;;;;;22.95;11.40;;;;;;;2.78;100.00;94506.50;10527556;28;20016;-75
2021/12/24 22:09:18;;;;;;;29.60;12.88;;;;;;;2.59;100.00;94499.66;10527460;28;20448;-76
2021/12/24 22:14:19;;;;;;;25.60;11.45;;;;;;;2.64;100.00;94508.56;10461102;28;20027;-70
2021/12/24 22:19:19;;;;;;;24.17;12.30;;;;;;;2.58;100.00;94517.41;10443272;28;20078;-76
2021/12/24 22:24:21;;;;;;;20.23;12.48;;;;;;;2.55;100.00;94510.75;10441359;28;20044;-71
2021/12/24 22:29:23;;;;;;;28.30;14.35;;;;;;;2.63;100.00;94506.13;10471880;28;20029;-75
2021/12/24 22:34:24;;;;;;;28.88;12.75;;;;;;;2.22;100.00;94520.00;10442095;28;20371;-75
2021/12/24 22:39:26;;;;;;;29.13;12.48;;;;;;;2.22;100.00;94521.84;10466922;28;20021;-74
2021/12/24 22:44:26;;;;;;;24.95;14.05;;;;;;;2.09;100.00;94491.00;10465797;28;20020;-73
2021/12/24 22:49:27;;;;;;;26.02;14.57;;;;;;;2.14;100.00;94487.72;10465402;28;20020;-76
2021/12/24 22:54:31;;;;;;;20.83;12.25;;;;;;;2.16;100.00;94462.59;10427337;28;20025;-75
2021/12/24 22:59:32;;;;;;;21.27;13.05;;;;;;;2.27;100.00;94457.53;10441273;28;20298;-74
2021/12/24 23:04:33;;;;;;;20.77;11.82;;;;;;;2.28;100.00;94440.59;10439815;28;20032;-73
2021/12/24 23:09:33;;;;;;;24.45;12.15;;;;;;;2.34;100.00;94455.56;10468402;28;20032;-72
2021/12/24 23:14:34;;;;;;;26.42;12.23;;;;;;;2.37;100.00;94455.09;10445919;28;20386;-71
2021/12/24 23:19:35;;;;;;;26.83;12.38;;;;;;;2.34;100.00;94440.47;10424352;28;20021;-76
2021/12/24 23:24:36;;;;;;;23.48;10.68;;;;;;;2.35;100.00;94460.66;10424428;28;20045;-74
2021/12/24 23:29:36;;;;;;;22.77;10.00;;;;;;;2.31;100.00;94456.84;10442645;28;20520;-77
2021/12/24 23:34:37;;;;;;;22.00;11.57;;;;;;;2.24;100.00;94468.59;10447443;28;20406;-75
2021/12/24 23:39:37;;;;;;;23.45;11.70;;;;;;;2.17;100.00;94453.56;10432539;28;20525;-73
2021/12/24 23:44:39;;;;;;;24.83;10.45;;;;;;;2.35;100.00;94479.22;10475028;28;20035;-73
2021/12/24 23:49:40;;;;;;;17.25;9.75;;;;;;;2.24;100.00;94464.09;10473290;28;20020;-73
2021/12/24 23:54:40;;;;;;;27.25;13.10;;;;;;;2.22;100.00;94498.78;10472228;28;20024;-74
2021/12/24 23:59:42;;;;;;;33.95;15.82;;;;;;;2.00;100.00;94493.19;10472840;28;20027;-72
